Terminal Aerodrome Forecast
Issued by NWS Lake Charles, LA

Home | Current Version | Previous Version | Text Only | Print | Product List | Glossary On
Versions: 1 2 3 4 5 6 7 8 9 10 11 12 13 14 15 16 17 18 19 20 21 22 23 24
000
FTUS44 KLCH 030500
TAFAEX
TAF
KAEX 030520Z 0306/0406 VRB03KT P6SM SCT009 OVC250
     FM030800 00000KT 5SM BR BKN009
      TEMPO 0310/0312 2SM BR OVC004
     FM031300 VRB04KT P6SM SCT012
     FM031800 15006KT P6SM VCSH BKN035
     FM040100 VRB03KT P6SM SCT040 BKN200=

USA.gov is the U.S. government's official web portal to all federal, state and local government web resources and services.